Terminal Aerodrome Forecast
Issued by NWS

Home | Current Version | Previous Version | Text Only | Print | Product List | Glossary Off
Versions: 1 2 3 4 5 6 7 8 9 10 11 12 13 14 15 16 17

000
FTUS43 KMPX 250536
TAFRNH
TAF
KRNH 250536Z 2506/2606 15005KT 1 1/2SM -SN BR BKN008 OVC012
     FM250830 17005KT 4SM BR OVC007
     FM251400 23012G20KT P6SM BKN011 OVC020
     FM251800 26021G29KT P6SM OVC022
     FM260100 29015G22KT P6SM BKN040=

USA.gov is the U.S. government's official web portal to all federal, state and local government web resources and services.